Terminal Aerodrome Forecast
Issued by NWS Mobile, AL

Home | Current Version | Previous Version | Text Only | Print | Product List | Glossary On
Versions: 1 2 3 4 5 6 7 8 9 10 11 12 13 14 15 16 17 18 19 20 21 22 23 24 25 26 27 28 29 30 31 32 33 34 35 36 37 38 39 40
000
FTUS44 KMOB 241800 AAA
TAFMOB
TAF AMD
KMOB 241841Z 2419/2518 14007KT P6SM VCTS FEW035CB SCT070 BKN150
      TEMPO 2419/2420 VRB25KT 2SM TSRA BKN020CB
     FM242000 22005KT P6SM VCTS BKN040CB BKN250
     FM250300 22003KT P6SM SCT030 SCT250
     FM250900 23002KT P6SM OVC050 PROB30 2512/2517 P6SM SHRA OVC025=

USA.gov is the U.S. government's official web portal to all federal, state and local government web resources and services.